Time;durP1;ratioP1;P1;durP2;ratioP2;P2;SDS_P1;SDS_P2;PMS_P1;PMS_P2;Temp;Humidity;BMP_temperature;BMP_pressure;BME280_temperature;BME280_humidity;BME280_pressure;Samples;Min_cycle;Max_cycle;Signal;HPM_P1;HPM_P2
2022/11/14 00:01:40;;;;;;;82.00;22.77;;;5.60;1.00;;;;;;5073038;28;20556;-77
2022/11/14 00:04:07;;;;;;;83.63;24.75;;;5.60;1.00;;;;;;5072894;28;20197;-76
2022/11/14 00:06:35;;;;;;;81.53;23.00;;;5.50;1.00;;;;;;5072614;28;20677;-76
2022/11/14 00:09:02;;;;;;;83.40;22.88;;;5.50;1.00;;;;;;5071779;28;20232;-76
2022/11/14 00:11:29;;;;;;;82.22;22.73;;;5.50;1.00;;;;;;5072578;28;20209;-76
2022/11/14 00:13:55;;;;;;;84.15;22.73;;;5.50;1.00;;;;;;5072412;28;20225;-76
2022/11/14 00:16:22;;;;;;;79.00;21.40;;;5.40;1.00;;;;;;5072639;28;20209;-76
2022/11/14 00:18:50;;;;;;;83.53;21.92;;;5.50;1.00;;;;;;5071275;28;20229;-76
2022/11/14 00:21:16;;;;;;;83.13;23.50;;;5.40;1.00;;;;;;5072527;28;20232;-76
2022/11/14 00:23:45;;;;;;;85.20;22.85;;;5.40;1.00;;;;;;5072219;28;20215;-76
2022/11/14 00:26:11;;;;;;;84.75;24.27;;;5.40;1.00;;;;;;5072384;28;20201;-76
2022/11/14 00:28:38;;;;;;;80.13;22.00;;;5.40;1.00;;;;;;5071312;28;20233;-76
2022/11/14 00:31:05;;;;;;;85.40;22.50;;;5.40;1.00;;;;;;5072444;28;20579;-76
2022/11/14 00:33:32;;;;;;;82.93;22.75;;;5.40;1.00;;;;;;5071998;28;20235;-76
2022/11/14 00:35:59;;;;;;;83.95;23.20;;;5.40;1.00;;;;;;5072266;28;20209;-76
2022/11/14 00:38:26;;;;;;;85.80;22.95;;;5.30;1.00;;;;;;5072102;28;20228;-76
2022/11/14 00:40:54;;;;;;;79.78;22.92;;;5.30;1.00;;;;;;5071424;28;20628;-77
2022/11/14 00:43:21;;;;;;;82.47;21.02;;;5.30;1.00;;;;;;5072304;28;20211;-76
2022/11/14 00:45:48;;;;;;;81.30;22.40;;;5.40;1.00;;;;;;5072272;28;20586;-76
2022/11/14 00:48:15;;;;;;;85.22;24.23;;;5.40;1.00;;;;;;5071903;28;20324;-76
2022/11/14 00:50:43;;;;;;;83.72;23.70;;;5.50;1.00;;;;;;5071274;28;20205;-76
2022/11/14 00:53:09;;;;;;;78.55;21.30;;;5.50;1.00;;;;;;5071961;28;20236;-76
2022/11/14 00:55:36;;;;;;;80.40;21.23;;;5.50;1.00;;;;;;5071748;28;20207;-76
2022/11/14 00:58:05;;;;;;;82.78;24.08;;;5.50;1.00;;;;;;5071663;28;20713;-76
2022/11/14 01:00:31;;;;;;;80.88;23.05;;;5.50;1.00;;;;;;5071297;28;20231;-76
2022/11/14 01:02:58;;;;;;;77.25;20.55;;;5.50;1.00;;;;;;5071900;28;20209;-76
2022/11/14 01:05:25;;;;;;;80.78;21.10;;;5.60;1.00;;;;;;5071768;28;20304;-76
2022/11/14 01:07:52;;;;;;;80.07;21.58;;;5.50;1.00;;;;;;5071761;28;20232;-77
2022/11/14 01:10:19;;;;;;;80.32;22.25;;;5.50;1.00;;;;;;5070971;28;20251;-76
2022/11/14 01:12:46;;;;;;;80.65;21.27;;;5.50;1.00;;;;;;5071605;28;20209;-77
2022/11/14 01:15:15;;;;;;;82.95;22.45;;;5.50;1.00;;;;;;5071865;28;20201;-76
2022/11/14 01:17:42;;;;;;;89.97;23.48;;;5.50;1.00;;;;;;5071488;28;20721;-76
2022/11/14 01:20:09;;;;;;;82.80;22.70;;;5.40;1.00;;;;;;5070991;28;20213;-76
2022/11/14 01:22:36;;;;;;;81.55;22.85;;;5.40;1.00;;;;;;5071344;28;20299;-77
2022/11/14 01:25:03;;;;;;;81.72;23.52;;;5.30;1.00;;;;;;5071823;28;20716;-76
2022/11/14 01:27:31;;;;;;;80.38;21.75;;;5.30;1.00;;;;;;5071683;28;20227;-76
2022/11/14 01:29:57;;;;;;;80.88;22.20;;;5.30;1.00;;;;;;5071799;28;20283;-76
2022/11/14 01:32:26;;;;;;;84.90;22.70;;;5.20;1.00;;;;;;5075533;28;20687;-76
2022/11/14 01:34:53;;;;;;;82.53;23.13;;;5.00;1.00;;;;;;5075461;28;20705;-76
2022/11/14 01:37:19;;;;;;;81.45;22.10;;;5.00;1.00;;;;;;5075384;28;20212;-76
2022/11/14 01:39:46;;;;;;;81.88;21.98;;;4.90;1.00;;;;;;5074678;28;20204;-77
2022/11/14 01:42:13;;;;;;;77.13;21.30;;;5.00;1.00;;;;;;5075658;28;20296;-76
2022/11/14 01:44:48;;;;;;;78.97;20.92;;;5.00;1.00;;;;;;5075384;28;20197;-76
2022/11/14 01:47:18;;;;;;;82.53;21.65;;;5.10;1.00;;;;;;5075222;28;20226;-77
2022/11/14 01:49:49;;;;;;;82.28;21.38;;;5.10;1.00;;;;;;5074381;28;20212;-76
2022/11/14 01:52:18;;;;;;;80.75;21.20;;;5.10;1.00;;;;;;5075543;28;20344;-76
2022/11/14 01:54:48;;;;;;;82.60;21.17;;;5.00;1.00;;;;;;5075277;28;20229;-76
2022/11/14 01:57:17;;;;;;;78.82;20.55;;;5.00;1.00;;;;;;5075189;28;20339;-76
2022/11/14 01:59:49;;;;;;;82.60;20.98;;;5.00;1.00;;;;;;5074366;28;20300;-76
2022/11/14 02:02:18;;;;;;;79.53;21.77;;;4.90;1.00;;;;;;5074876;28;20300;-76
2022/11/14 02:04:51;;;;;;;83.30;21.58;;;4.90;1.00;;;;;;5075165;28;20201;-76
2022/11/14 02:07:19;;;;;;;86.63;23.23;;;4.90;1.00;;;;;;5074897;28;20205;-76
2022/11/14 02:09:48;;;;;;;82.93;22.17;;;4.90;1.00;;;;;;5074216;28;20202;-76
2022/11/14 02:12:17;;;;;;;80.03;19.90;;;4.80;1.00;;;;;;5074936;28;20258;-76
2022/11/14 02:14:46;;;;;;;83.28;21.92;;;4.80;1.00;;;;;;5074577;28;20224;-76
2022/11/14 02:17:13;;;;;;;84.20;22.30;;;4.80;1.00;;;;;;5074882;28;20211;-76
2022/11/14 02:19:42;;;;;;;76.90;18.50;;;4.80;1.00;;;;;;5070234;28;20209;-76
2022/11/14 02:22:10;;;;;;;80.90;21.98;;;4.70;1.00;;;;;;5074165;28;20304;-76
2022/11/14 02:24:37;;;;;;;85.30;21.25;;;4.70;1.00;;;;;;5073630;28;20202;-76
2022/11/14 02:27:06;;;;;;;79.15;19.95;;;4.70;1.00;;;;;;5073351;28;20201;-76
2022/11/14 02:29:34;;;;;;;80.43;21.83;;;4.70;1.00;;;;;;5072510;28;20229;-76
2022/11/14 02:32:01;;;;;;;76.75;21.33;;;4.70;1.00;;;;;;5073389;28;20209;-76
2022/11/14 02:34:27;;;;;;;79.57;21.10;;;4.60;1.00;;;;;;5073677;28;20229;-76
2022/11/14 02:36:55;;;;;;;81.13;23.02;;;4.60;1.00;;;;;;5073213;28;20712;-76
2022/11/14 02:39:23;;;;;;;82.68;21.98;;;;;;;;;;5072599;28;20259;-76
2022/11/14 02:41:51;;;;;;;76.95;19.40;;;4.40;1.00;;;;;;5072852;28;20201;-76
2022/11/14 02:44:18;;;;;;;79.85;20.65;;;4.50;1.00;;;;;;5073535;28;20201;-76
2022/11/14 02:46:44;;;;;;;78.68;20.20;;;4.50;1.00;;;;;;5073263;28;20228;-76
2022/11/14 02:49:11;;;;;;;81.10;21.63;;;4.30;1.00;;;;;;5072644;28;20229;-76
2022/11/14 02:51:40;;;;;;;81.00;21.25;;;4.40;1.00;;;;;;5072991;28;20209;-76
2022/11/14 02:54:06;;;;;;;83.35;22.05;;;4.40;1.00;;;;;;5073124;28;20231;-76
2022/11/14 02:56:35;;;;;;;82.00;22.83;;;4.40;1.00;;;;;;5072980;28;20205;-76
2022/11/14 02:59:02;;;;;;;81.13;21.63;;;4.30;1.00;;;;;;5072138;28;20225;-76
2022/11/14 03:01:28;;;;;;;77.97;20.73;;;4.20;1.00;;;;;;5072938;28;20219;-76
2022/11/14 03:03:55;;;;;;;79.47;19.27;;;4.20;1.00;;;;;;5072759;28;20297;-76
2022/11/14 03:06:22;;;;;;;80.35;20.15;;;4.20;1.00;;;;;;5073047;28;20201;-76
2022/11/14 03:08:49;;;;;;;79.13;21.10;;;4.30;1.00;;;;;;5072209;28;20736;-76
2022/11/14 03:11:16;;;;;;;81.47;20.98;;;4.30;1.00;;;;;;5072740;28;20205;-76
2022/11/14 03:13:44;;;;;;;78.82;18.88;;;4.40;1.00;;;;;;5072632;28;20256;-76
2022/11/14 03:16:13;;;;;;;77.93;19.75;;;4.40;1.00;;;;;;5072607;28;20596;-76
2022/11/14 03:18:40;;;;;;;76.85;19.70;;;4.40;1.00;;;;;;5071725;28;20316;-75
2022/11/14 03:21:08;;;;;;;81.50;20.30;;;4.20;1.00;;;;;;5072762;28;20209;-76
2022/11/14 03:23:35;;;;;;;79.20;18.83;;;4.30;1.00;;;;;;5034979;28;1097935;-76
2022/11/14 03:26:02;;;;;;;79.55;19.83;;;4.30;1.00;;;;;;5073586;28;20205;-76
2022/11/14 03:28:29;;;;;;;80.00;19.13;;;4.40;1.00;;;;;;5073071;28;20255;-76
2022/11/14 03:30:57;;;;;;;79.85;19.90;;;4.40;1.00;;;;;;5072894;28;20205;-76
2022/11/14 03:33:24;;;;;;;82.50;20.00;;;4.40;1.00;;;;;;5073211;28;20695;-76
2022/11/14 03:35:52;;;;;;;78.38;19.50;;;4.40;1.00;;;;;;5073490;28;20215;-76
2022/11/14 03:38:21;;;;;;;77.90;17.95;;;4.40;1.00;;;;;;5073248;28;20582;-76
2022/11/14 03:40:49;;;;;;;79.72;20.45;;;4.20;1.00;;;;;;5072649;28;20213;-76
2022/11/14 03:43:16;;;;;;;79.35;19.33;;;4.20;1.00;;;;;;5073024;28;20216;-76
2022/11/14 03:45:43;;;;;;;84.45;19.95;;;4.20;1.00;;;;;;5073024;28;20669;-76
2022/11/14 03:48:11;;;;;;;80.70;19.33;;;4.20;1.00;;;;;;5073170;28;20227;-76
2022/11/14 03:50:38;;;;;;;77.28;18.00;;;4.30;1.00;;;;;;5072531;28;20205;-76
2022/11/14 03:53:05;;;;;;;77.00;18.30;;;4.30;1.00;;;;;;5072246;28;20205;-76
2022/11/14 03:55:32;;;;;;;81.78;19.60;;;4.20;1.00;;;;;;5072873;28;20225;-76
2022/11/14 03:57:59;;;;;;;80.45;20.77;;;4.20;1.00;;;;;;5072581;28;20236;-76
2022/11/14 04:00:27;;;;;;;80.45;20.60;;;4.00;1.00;;;;;;5072091;28;20308;-76
2022/11/14 04:02:54;;;;;;;86.65;20.92;;;3.40;1.00;;;;;;5072906;28;20263;-76
2022/11/14 04:05:22;;;;;;;104.88;23.23;;;3.00;1.00;;;;;;5072824;28;20205;-76
2022/11/14 04:07:50;;;;;;;98.85;24.10;;;3.10;1.00;;;;;;5072578;28;20221;-75
2022/11/14 04:10:17;;;;;;;121.18;23.10;;;2.70;1.00;;;;;;5071822;28;20258;-76
2022/11/14 04:12:47;;;;;;;84.00;21.08;;;2.80;1.00;;;;;;5072466;28;20209;-76
2022/11/14 04:15:14;;;;;;;95.63;22.45;;;3.40;1.00;;;;;;5072474;28;20229;-76
2022/11/14 04:17:41;;;;;;;90.10;20.50;;;3.90;1.00;;;;;;5072348;28;20749;-76
2022/11/14 04:20:09;;;;;;;110.18;23.08;;;4.20;1.00;;;;;;5071767;28;20201;-76
2022/11/14 04:22:37;;;;;;;92.13;19.58;;;4.20;1.00;;;;;;5072354;28;20597;-76
2022/11/14 04:25:04;;;;;;;85.63;21.70;;;4.20;1.00;;;;;;5072201;28;20208;-76
2022/11/14 04:27:31;;;;;;;88.97;20.85;;;4.30;1.00;;;;;;5072277;28;20308;-76
2022/11/14 04:29:58;;;;;;;78.65;19.80;;;4.40;1.00;;;;;;5071544;28;20205;-75
2022/11/14 04:32:25;;;;;;;81.85;20.70;;;4.60;1.00;;;;;;5072157;28;20681;-75
2022/11/14 04:34:52;;;;;;;80.50;20.80;;;4.70;1.00;;;;;;5072205;28;20232;-75
2022/11/14 04:37:18;;;;;;;77.82;18.95;;;4.80;1.00;;;;;;5072041;28;20207;-75
2022/11/14 04:39:47;;;;;;;81.95;19.80;;;4.80;1.00;;;;;;5071258;28;20209;-75
2022/11/14 04:42:13;;;;;;;80.47;21.23;;;4.80;1.00;;;;;;5072005;28;20201;-75
2022/11/14 04:44:40;;;;;;;80.43;19.83;;;4.90;1.00;;;;;;5072026;28;20684;-75
2022/11/14 04:47:07;;;;;;;129.73;25.80;;;4.90;1.00;;;;;;5072144;28;20205;-75
2022/11/14 04:49:34;;;;;;;126.43;23.88;;;4.90;1.00;;;;;;5071284;28;20680;-74
2022/11/14 04:52:01;;;;;;;145.85;25.00;;;4.60;1.00;;;;;;5071601;28;20205;-75
2022/11/14 04:54:27;;;;;;;173.27;26.20;;;4.10;1.00;;;;;;5071786;28;20229;-75
2022/11/14 04:56:55;;;;;;;91.20;21.60;;;3.90;1.00;;;;;;5071843;28;20756;-74
2022/11/14 04:59:22;;;;;;;123.32;24.85;;;4.00;1.00;;;;;;5071276;28;20229;-75
2022/11/14 05:01:49;;;;;;;84.07;19.88;;;4.20;1.00;;;;;;5071860;28;20692;-74
2022/11/14 05:04:16;;;;;;;81.53;20.48;;;4.40;1.00;;;;;;5071492;28;20304;-74
2022/11/14 05:06:43;;;;;;;83.15;20.65;;;4.60;1.00;;;;;;5071720;28;20212;-74
2022/11/14 05:09:09;;;;;;;79.70;19.60;;;4.50;1.00;;;;;;5070860;28;20231;-75
2022/11/14 05:11:36;;;;;;;77.80;18.65;;;4.60;1.00;;;;;;5072082;28;20200;-75
2022/11/14 05:14:04;;;;;;;80.13;21.10;;;4.80;1.00;;;;;;5071749;28;20201;-74
2022/11/14 05:16:31;;;;;;;78.55;19.60;;;4.90;1.00;;;;;;5071749;28;20211;-75
2022/11/14 05:18:58;;;;;;;92.68;22.70;;;5.10;1.00;;;;;;5070760;28;20225;-75
2022/11/14 05:21:25;;;;;;;81.57;19.98;;;5.20;1.00;;;;;;5071529;28;20693;-75
2022/11/14 05:23:52;;;;;;;84.18;20.45;;;4.80;1.00;;;;;;5071764;28;20209;-75
2022/11/14 05:26:19;;;;;;;84.75;22.00;;;4.70;1.00;;;;;;5071506;28;20209;-75
2022/11/14 05:28:46;;;;;;;81.93;20.90;;;4.60;1.00;;;;;;5071004;28;20771;-74
2022/11/14 05:31:16;;;;;;;84.38;21.05;;;4.70;1.00;;;;;;5071596;28;20212;-75
2022/11/14 05:33:43;;;;;;;85.45;21.85;;;4.80;1.00;;;;;;5071553;28;20189;-75
2022/11/14 05:36:12;;;;;;;85.93;21.00;;;4.80;1.00;;;;;;5071667;28;20243;-75
2022/11/14 05:38:39;;;;;;;80.38;19.27;;;4.70;1.00;;;;;;5070798;28;20628;-75
2022/11/14 05:41:06;;;;;;;87.47;20.42;;;4.80;1.00;;;;;;5071522;28;20204;-75
2022/11/14 05:43:33;;;;;;;82.78;20.58;;;4.80;1.00;;;;;;5071397;28;20216;-75
2022/11/14 05:46:00;;;;;;;82.57;21.67;;;4.80;1.00;;;;;;5071415;28;20207;-75
2022/11/14 05:48:29;;;;;;;81.93;21.05;;;4.80;1.00;;;;;;5071069;28;20240;-76
2022/11/14 05:50:57;;;;;;;83.68;21.10;;;4.90;1.00;;;;;;5071350;28;20644;-75
2022/11/14 05:53:24;;;;;;;80.45;20.38;;;4.90;1.00;;;;;;5071664;28;20209;-75
2022/11/14 05:55:51;;;;;;;83.10;20.50;;;4.80;1.00;;;;;;5071249;28;20240;-75
2022/11/14 05:58:18;;;;;;;84.18;20.40;;;4.90;1.00;;;;;;5071195;28;20666;-75
2022/11/14 06:00:45;;;;;;;80.40;20.50;;;4.80;1.00;;;;;;5070430;28;20208;-74
2022/11/14 06:03:13;;;;;;;82.93;18.80;;;4.80;1.00;;;;;;5071106;28;20205;-75
2022/11/14 06:05:42;;;;;;;83.07;20.25;;;4.90;1.00;;;;;;5071392;28;20579;-75
2022/11/14 06:08:09;;;;;;;82.75;19.30;;;4.80;1.00;;;;;;5071181;28;20236;-74
2022/11/14 06:10:36;;;;;;;85.05;21.27;;;4.90;1.00;;;;;;5070549;28;20207;-75
2022/11/14 06:13:03;;;;;;;78.43;18.27;;;4.90;1.00;;;;;;5071133;28;20681;-75
2022/11/14 06:15:30;;;;;;;79.63;19.95;;;5.00;1.00;;;;;;5071172;28;20221;-75
2022/11/14 06:17:57;;;;;;;82.65;18.58;;;5.10;1.00;;;;;;5074616;28;20221;-75
2022/11/14 06:20:24;;;;;;;79.82;19.08;;;5.10;1.00;;;;;;5074043;28;20212;-75
2022/11/14 06:22:55;;;;;;;79.43;19.90;;;5.00;1.00;;;;;;5074710;28;20213;-75
2022/11/14 06:25:22;;;;;;;79.15;18.52;;;5.00;1.00;;;;;;5074633;28;20205;-75
2022/11/14 06:27:49;;;;;;;77.35;19.38;;;4.80;1.00;;;;;;5074543;28;20229;-75
2022/11/14 06:30:16;;;;;;;79.72;19.70;;;4.90;1.00;;;;;;5073710;28;20219;-75
2022/11/14 06:32:42;;;;;;;79.05;19.15;;;4.90;1.00;;;;;;5074896;28;20593;-75
2022/11/14 06:35:09;;;;;;;81.40;19.95;;;5.10;1.00;;;;;;5074516;28;20235;-75
2022/11/14 06:37:37;;;;;;;81.63;19.48;;;5.20;1.00;;;;;;5074453;28;20229;-75
2022/11/14 06:40:06;;;;;;;78.38;18.73;;;5.30;1.00;;;;;;5073829;28;20205;-75
2022/11/14 06:42:33;;;;;;;80.28;19.63;;;5.30;1.00;;;;;;5074275;28;20219;-75
2022/11/14 06:45:00;;;;;;;83.03;21.30;;;5.40;1.00;;;;;;5074586;28;20201;-75
2022/11/14 06:47:26;;;;;;;86.07;21.10;;;5.40;1.00;;;;;;5074106;28;20791;-75
2022/11/14 06:49:53;;;;;;;84.20;20.05;;;5.40;1.00;;;;;;5073617;28;20205;-75
2022/11/14 06:52:21;;;;;;;82.70;21.55;;;5.10;1.00;;;;;;5074175;28;20236;-75
2022/11/14 06:54:47;;;;;;;84.18;20.10;;;4.90;1.00;;;;;;5074092;28;20225;-75
2022/11/14 06:57:15;;;;;;;81.57;20.67;;;5.30;1.00;;;;;;5073984;28;20212;-74
2022/11/14 06:59:43;;;;;;;80.53;19.13;;;5.50;1.00;;;;;;5073508;28;20212;-74
2022/11/14 07:02:12;;;;;;;82.00;20.73;;;5.60;1.00;;;;;;5074208;28;20647;-75
2022/11/14 07:04:39;;;;;;;80.38;18.52;;;5.80;1.00;;;;;;5073969;28;20613;-75
2022/11/14 07:07:05;;;;;;;80.88;19.50;;;5.50;1.00;;;;;;5074004;28;20613;-75
2022/11/14 07:09:32;;;;;;;79.00;18.45;;;5.70;1.00;;;;;;5072830;28;20239;-75
2022/11/14 07:11:59;;;;;;;79.60;19.40;;;5.90;1.00;;;;;;5073734;28;20685;-75
2022/11/14 07:14:27;;;;;;;86.80;23.20;;;6.10;1.00;;;;;;5073864;28;20209;-75
2022/11/14 07:16:54;;;;;;;88.57;24.35;;;6.30;1.00;;;;;;5073654;28;20201;-74
2022/11/14 07:19:21;;;;;;;86.75;23.33;;;6.30;1.00;;;;;;5072945;28;20221;-75
2022/11/14 07:21:48;;;;;;;85.28;23.50;;;6.40;1.00;;;;;;5073528;28;20211;-75
2022/11/14 07:24:15;;;;;;;79.75;19.90;;;6.50;1.00;;;;;;5073487;28;20208;-75
2022/11/14 07:26:42;;;;;;;82.68;19.85;;;6.60;1.00;;;;;;5073351;28;20300;-75
2022/11/14 07:29:08;;;;;;;84.75;19.55;;;6.60;1.00;;;;;;5071866;28;20232;-75
2022/11/14 07:31:37;;;;;;;80.50;20.75;;;6.60;1.00;;;;;;5073457;28;20228;-76
2022/11/14 07:34:04;;;;;;;84.50;23.67;;;6.60;1.00;;;;;;5073393;28;20294;-75
2022/11/14 07:36:31;;;;;;;81.15;21.25;;;6.60;1.00;;;;;;5073277;28;20228;-75
2022/11/14 07:38:58;;;;;;;78.70;19.75;;;6.40;1.00;;;;;;5072294;28;20295;-75
2022/11/14 07:41:25;;;;;;;80.38;19.70;;;6.50;1.00;;;;;;5073374;28;20239;-75
2022/11/14 07:43:52;;;;;;;78.57;18.00;;;6.50;1.00;;;;;;5073124;28;20205;-75
2022/11/14 07:46:19;;;;;;;75.65;17.63;;;6.40;1.00;;;;;;5073227;28;20561;-75
2022/11/14 07:48:47;;;;;;;75.43;17.33;;;6.40;1.00;;;;;;5072264;28;20241;-75
2022/11/14 07:51:16;;;;;;;78.15;18.58;;;6.30;1.00;;;;;;5073085;28;20242;-75
2022/11/14 07:53:43;;;;;;;74.90;17.02;;;5.90;1.00;;;;;;5073150;28;20208;-75
2022/11/14 07:56:10;;;;;;;77.60;17.77;;;5.70;1.00;;;;;;5072967;28;20615;-75
2022/11/14 07:58:38;;;;;;;74.70;16.23;;;5.80;1.00;;;;;;5072148;28;20247;-76
2022/11/14 08:01:06;;;;;;;75.85;16.95;;;6.10;1.00;;;;;;5072886;28;20201;-75
2022/11/14 08:03:34;;;;;;;77.80;17.35;;;6.30;1.00;;;;;;5072712;28;20213;-75
2022/11/14 08:06:04;;;;;;;78.75;19.02;;;6.50;1.00;;;;;;5072590;28;20675;-75
2022/11/14 08:08:31;;;;;;;75.93;17.63;;;6.40;1.00;;;;;;5072451;28;20229;-75
2022/11/14 08:10:58;;;;;;;76.57;16.92;;;5.70;1.00;;;;;;5072536;28;20205;-75
2022/11/14 08:13:25;;;;;;;77.15;17.00;;;5.80;1.00;;;;;;5072647;28;20207;-75
2022/11/14 08:15:53;;;;;;;81.38;17.73;;;5.60;1.00;;;;;;5072475;28;20224;-75
2022/11/14 08:18:19;;;;;;;77.38;17.25;;;5.80;1.00;;;;;;5072255;28;20319;-75
2022/11/14 08:20:47;;;;;;;82.00;18.33;;;5.80;1.00;;;;;;5072007;28;20205;-75
2022/11/14 08:23:15;;;;;;;79.43;17.85;;;6.20;1.00;;;;;;5072256;28;20221;-75
2022/11/14 08:25:42;;;;;;;76.47;16.70;;;6.50;1.00;;;;;;5072271;28;20212;-74
2022/11/14 08:28:09;;;;;;;77.85;18.27;;;6.50;1.00;;;;;;5072264;28;20225;-75
2022/11/14 08:30:36;;;;;;;77.65;18.17;;;6.10;1.00;;;;;;5071656;28;20211;-75
2022/11/14 08:33:03;;;;;;;78.68;19.77;;;6.00;1.00;;;;;;5072234;28;20637;-75
2022/11/14 08:35:30;;;;;;;76.28;16.92;;;5.80;1.00;;;;;;5072156;28;20721;-75
2022/11/14 08:37:57;;;;;;;75.50;17.20;;;5.40;1.00;;;;;;5072138;28;20225;-75
2022/11/14 08:40:25;;;;;;;77.13;17.55;;;5.50;1.00;;;;;;5071406;28;20208;-75
2022/11/14 08:42:52;;;;;;;78.90;18.80;;;5.70;1.00;;;;;;5072211;28;20231;-75
2022/11/14 08:45:19;;;;;;;79.78;18.52;;;6.00;1.00;;;;;;5072046;28;20204;-74
2022/11/14 08:47:52;;;;;;;75.40;16.60;;;6.00;1.00;;;;;;5072137;28;20221;-74
2022/11/14 08:50:19;;;;;;;76.65;19.27;;;6.30;1.00;;;;;;5071260;28;20205;-73
2022/11/14 08:52:50;;;;;;;77.75;17.65;;;6.40;1.00;;;;;;5072039;28;20205;-75
2022/11/14 08:55:17;;;;;;;77.40;18.00;;;6.60;1.00;;;;;;5071897;28;20221;-75
2022/11/14 08:57:46;;;;;;;80.18;18.15;;;6.60;1.00;;;;;;5071829;28;20240;-75
2022/11/14 09:00:13;;;;;;;77.75;17.75;;;6.50;1.00;;;;;;5071063;28;20216;-75
2022/11/14 09:02:40;;;;;;;78.05;18.13;;;6.60;1.00;;;;;;5071844;28;20213;-75
2022/11/14 09:05:08;;;;;;;84.55;18.35;;;6.80;1.00;;;;;;5071979;28;20296;-75
2022/11/14 09:07:35;;;;;;;79.50;17.30;;;7.30;1.00;;;;;;5071780;28;20224;-75
2022/11/14 09:10:02;;;;;;;75.93;18.65;;;7.50;1.00;;;;;;5071024;28;20212;-75
2022/11/14 09:12:29;;;;;;;77.40;16.30;;;7.80;1.00;;;;;;5071821;28;20207;-75
2022/11/14 09:14:57;;;;;;;78.03;17.98;;;7.90;1.00;;;;;;5071628;28;20258;-76
2022/11/14 09:17:23;;;;;;;80.60;17.95;;;8.10;1.00;;;;;;5071797;28;20227;-75
2022/11/14 09:19:50;;;;;;;76.78;17.05;;;8.10;1.00;;;;;;5071049;28;20296;-75
2022/11/14 09:22:17;;;;;;;80.60;17.77;;;8.20;1.00;;;;;;5071582;28;20210;-75
2022/11/14 09:24:46;;;;;;;76.35;17.95;;;8.40;1.00;;;;;;5071678;28;20205;-75
2022/11/14 09:27:13;;;;;;;83.68;24.80;;;8.50;1.00;;;;;;5071168;28;20198;-75
2022/11/14 09:29:40;;;;;;;79.22;20.45;;;8.10;1.00;;;;;;5070871;28;20216;-75
2022/11/14 09:32:08;;;;;;;74.30;17.27;;;8.30;1.00;;;;;;5071869;28;20763;-75
2022/11/14 09:34:36;;;;;;;80.13;18.70;;;8.30;1.00;;;;;;5061834;28;20202;-75
2022/11/14 09:37:03;;;;;;;79.90;18.50;;;8.10;1.00;;;;;;5051546;28;20928;-75
2022/11/14 09:39:30;;;;;;;78.93;18.65;;;8.20;1.00;;;;;;5052412;28;20784;-75
2022/11/14 09:42:12;;;;;;;80.38;19.25;;;7.90;1.00;;;;;;5070794;28;20258;-75
2022/11/14 09:44:53;;;;;;;78.10;16.65;;;8.20;1.00;;;;;;5071643;28;20297;-75
2022/11/14 09:47:26;;;;;;;77.13;16.40;;;8.30;1.00;;;;;;5071424;28;20239;-75
2022/11/14 09:49:59;;;;;;;76.57;17.50;;;8.40;1.00;;;;;;5071269;28;20456;-75
2022/11/14 09:52:31;;;;;;;75.50;17.10;;;8.70;1.00;;;;;;5074340;28;20459;-75
2022/11/14 09:55:01;;;;;;;77.88;15.88;;;8.90;1.00;;;;;;5075474;28;20458;-75
2022/11/14 09:57:29;;;;;;;72.30;14.07;;;9.00;1.00;;;;;;5075282;28;20231;-74
2022/11/14 09:59:56;;;;;;;69.77;13.40;;;9.10;1.00;;;;;;5074418;28;21039;-74
2022/11/14 10:02:47;;;;;;;70.07;12.27;;;9.30;1.00;;;;;;5075159;28;20459;-74
2022/11/14 10:05:32;;;;;;;73.13;14.53;;;9.50;1.00;;;;;;5075063;28;20448;-74
2022/11/14 10:08:25;;;;;;;89.30;27.10;;;9.80;1.00;;;;;;5075084;28;20484;-74
2022/11/14 10:10:55;;;;;;;77.10;20.03;;;10.20;1.00;;;;;;5074391;28;20472;-74
2022/11/14 10:13:45;;;;;;;78.30;16.70;;;10.40;1.00;;;;;;5075127;28;20460;-75
2022/11/14 10:16:18;;;;;;;75.10;15.03;;;10.50;1.00;;;;;;5074896;28;20490;-75
2022/11/14 10:19:07;;;;;;;70.53;13.40;;;10.70;1.00;;;;;;5073975;28;20481;-75
2022/11/14 10:21:50;;;;;;;70.10;13.80;;;10.90;1.00;;;;;;5074683;28;20494;-75
2022/11/14 10:24:55;;;;;;;73.17;13.80;;;11.00;1.00;;;;;;5074953;28;20459;-75
2022/11/14 10:27:27;;;;;;;66.70;13.07;;;11.30;1.00;;;;;;5059059;28;20485;-75
2022/11/14 10:30:10;;;;;;;72.10;13.13;;;11.60;1.00;;;;;;5074158;28;20464;-76
2022/11/14 10:33:05;;;;;;;68.73;11.80;;;11.90;1.00;;;;;;5074841;28;20450;-76
2022/11/14 10:35:39;;;;;;;65.87;10.67;;;12.00;1.00;;;;;;5074652;28;20446;-76
2022/11/14 10:38:14;;;;;;;69.30;11.60;;;11.50;1.00;;;;;;5074398;28;20471;-76
2022/11/14 10:40:45;;;;;;;72.10;10.47;;;11.80;1.00;;;;;;5074051;28;20825;-77
2022/11/14 10:43:24;;;;;;;67.87;11.70;;;11.80;1.00;;;;;;5074710;28;20538;-77
2022/11/14 10:45:57;;;;;;;66.73;11.17;;;11.50;1.00;;;;;;5074756;28;20534;-77
2022/11/14 10:48:30;;;;;;;65.47;10.30;;;11.10;1.00;;;;;;5074498;28;20467;-78
2022/11/14 10:51:02;;;;;;;70.30;11.00;;;10.90;1.00;;;;;;5074661;28;20459;-78
2022/11/14 10:53:41;;;;;;;68.40;10.07;;;10.70;1.00;;;;;;5075673;28;20526;-77
2022/11/14 10:56:11;;;;;;;66.80;10.80;;;11.20;1.00;;;;;;5076550;28;20479;-78
2022/11/14 10:58:38;;;;;;;68.10;11.07;;;11.40;1.00;;;;;;5076777;28;20998;-79
2022/11/14 11:01:34;;;;;;;65.57;9.57;;;11.40;1.00;;;;;;5079115;28;20536;-79
2022/11/14 11:04:19;;;;;;;68.40;11.67;;;11.60;1.00;;;;;;5079087;28;20454;-80
2022/11/14 11:06:47;;;;;;;66.30;10.57;;;12.00;1.00;;;;;;5079827;28;20447;-79
2022/11/14 11:12:02;;;;;;;65.80;8.27;;;12.30;1.00;;;;;;5080089;28;20481;-80
2022/11/14 11:14:29;;;;;;;64.47;9.47;;;12.00;1.00;;;;;;5079647;28;20530;-80
2022/11/14 11:17:23;;;;;;;64.87;8.47;;;12.20;1.00;;;;;;5078533;28;20536;-81
2022/11/14 11:19:50;;;;;;;67.13;9.27;;;12.10;1.00;;;;;;5042290;28;20537;-81
2022/11/14 11:22:28;;;;;;;71.00;11.27;;;12.40;1.00;;;;;;5078188;28;20553;-81
2022/11/14 11:24:55;;;;;;;66.10;9.77;;;13.00;1.00;;;;;;5079461;28;20443;-81
2022/11/14 11:27:24;;;;;;;64.50;9.27;;;13.50;1.00;;;;;;5079769;28;20511;-83
2022/11/14 11:30:04;;;;;;;66.63;7.20;;;15.30;1.00;;;;;;5080407;28;20516;-83
2022/11/14 11:32:31;;;;;;;60.93;6.10;;;16.50;1.00;;;;;;5081408;28;20534;-82
2022/11/14 11:35:01;;;;;;;61.90;5.70;;;16.30;1.00;;;;;;5081624;28;20936;-82
2022/11/14 11:37:43;;;;;;;62.07;4.70;;;15.80;1.00;;;;;;5082593;28;20584;-82
2022/11/14 11:40:17;;;;;;;60.27;4.80;;;15.00;1.00;;;;;;5082304;28;20451;-81
2022/11/14 11:42:48;;;;;;;59.27;4.00;;;15.30;1.00;;;;;;5085016;28;20490;-80
2022/11/14 11:45:17;;;;;;;59.00;4.17;;;14.50;1.00;;;;;;5085363;28;20472;-80
2022/11/14 11:47:50;;;;;;;59.50;3.80;;;14.00;1.00;;;;;;5085142;28;20499;-80
2022/11/14 11:50:20;;;;;;;58.90;4.17;;;13.70;1.00;;;;;;5084845;28;20454;-79
2022/11/14 11:52:57;;;;;;;60.83;4.03;;;13.30;1.00;;;;;;5086439;28;20455;-79
2022/11/14 11:55:27;;;;;;;58.77;4.10;;;13.00;1.00;;;;;;5085162;28;20534;-79
2022/11/14 11:58:02;;;;;;;59.53;3.93;;;12.80;1.00;;;;;;5082461;28;20567;-78
2022/11/14 12:00:29;;;;;;;60.40;4.60;;;12.80;1.00;;;;;;5080423;28;20459;-78
2022/11/14 12:02:57;;;;;;;58.67;3.60;;;12.80;1.00;;;;;;5078969;28;20458;-78
2022/11/14 12:05:31;;;;;;;60.77;3.93;;;12.70;1.00;;;;;;5075462;28;20542;-78
2022/11/14 12:08:03;;;;;;;59.03;3.80;;;12.60;1.00;;;;;;5074107;28;20467;-77
2022/11/14 12:10:32;;;;;;;61.13;3.90;;;12.70;1.00;;;;;;5072491;28;20443;-77
2022/11/14 12:13:45;;;;;;;59.00;3.90;;;12.40;1.00;;;;;;5072579;28;20447;-77
2022/11/14 12:16:22;;;;;;;59.90;4.40;;;12.30;1.00;;;;;;5010781;28;20585;-77
2022/11/14 12:19:24;;;;;;;58.70;3.80;;;12.10;1.00;;;;;;5069377;28;20482;-77
2022/11/14 12:22:25;;;;;;;59.13;3.67;;;12.10;1.00;;;;;;5074600;28;20465;-77
2022/11/14 12:25:18;;;;;;;58.90;3.73;;;12.00;1.00;;;;;;5074136;28;20451;-77
2022/11/14 12:28:05;;;;;;;59.20;4.07;;;12.00;1.00;;;;;;5073182;28;20476;-77
2022/11/14 12:30:34;;;;;;;59.13;3.90;;;12.10;1.00;;;;;;5072645;28;20455;-77
2022/11/14 12:33:07;;;;;;;59.10;3.90;;;12.20;1.00;;;;;;5073494;28;20539;-77
2022/11/14 12:35:36;;;;;;;59.43;3.53;;;12.30;1.00;;;;;;5065126;28;20455;-77
2022/11/14 12:38:05;;;;;;;58.47;3.97;;;12.40;1.00;;;;;;5062878;28;20487;-77
2022/11/14 12:40:35;;;;;;;59.17;4.17;;;12.50;1.00;;;;;;5064186;28;20462;-77
2022/11/14 12:43:03;;;;;;;59.80;4.00;;;12.60;1.00;;;;;;5053078;28;20436;-77
2022/11/14 12:46:07;;;;;;;58.77;3.60;;;12.90;1.00;;;;;;5051784;28;20474;-77
2022/11/14 12:48:36;;;;;;;59.13;4.00;;;13.80;1.00;;;;;;4998583;28;20473;-77
2022/11/14 12:51:05;;;;;;;60.85;4.13;;;15.80;1.00;;;;;;4990361;28;20452;-76
2022/11/14 12:53:42;;;;;;;60.00;4.30;;;16.90;1.00;;;;;;4989015;28;20212;-77
2022/11/14 12:59:45;;;;;;;59.87;4.00;;;18.30;99.90;;;;;;5133414;27;20588;-79
2022/11/14 13:02:35;;;;;;;69.43;4.30;;;17.10;99.90;;;;;;5133711;28;20794;-77
2022/11/14 13:05:23;;;;;;;59.60;4.00;;;15.80;99.90;;;;;;5136494;27;20441;-79